Time;durP1;ratioP1;P1;durP2;ratioP2;P2;SDS_P1;SDS_P2;PMS_P1;PMS_P2;Temp;Humidity;BMP_temperature;BMP_pressure;BME280_temperature;BME280_humidity;BME280_pressure;Samples;Min_cycle;Max_cycle;Signal;HPM_P1;HPM_P2
2022/04/13 00:00:56;;;;;;;;;;;;;;;9.74;47.83;100358.72;4441050;32;19993;-76
2022/04/13 00:03:24;;;;;;;;;;;;;;;9.91;47.07;100368.66;4430973;32;20047;-75
2022/04/13 00:05:51;;;;;;;;;;;;;;;9.64;47.86;100372.22;4425588;32;19978;-76
2022/04/13 00:08:17;;;;;;;;;;;;;;;9.78;47.37;100370.91;4421443;32;20302;-76
2022/04/13 00:10:45;;;;;;;;;;;;;;;9.47;48.25;100368.28;4415684;32;19997;-77
2022/04/13 00:13:12;;;;;;;;;;;;;;;9.44;48.35;100374.22;4415734;32;19991;-76
2022/04/13 00:15:39;;;;;;;;;;;;;;;9.53;47.66;100373.63;4415215;32;19978;-76
2022/04/13 00:18:07;;;;;;;;;;;;;;;9.58;47.49;100377.22;4423679;32;20035;-76
2022/04/13 00:20:34;;;;;;;;;;;;;;;9.67;47.34;100377.50;4417929;32;20347;-76
2022/04/13 00:23:01;;;;;;;;;;;;;;;9.58;47.67;100382.41;4425534;32;20848;-76
2022/04/13 00:25:29;;;;;;;;;;;;;;;9.60;47.34;100378.12;4436857;32;19982;-76
2022/04/13 00:27:56;;;;;;;;;;;;;;;9.63;47.49;100382.50;4427744;32;19989;-76
2022/04/13 00:30:24;;;;;;;;;;;;;;;9.47;47.81;100373.44;4417147;32;20008;-75
2022/04/13 00:32:51;;;;;;;;;;;;;;;9.51;47.54;100375.31;4397515;32;19997;-78
2022/04/13 00:35:18;;;;;;;;;;;;;;;9.60;47.39;100375.53;4425606;32;19981;-75
2022/04/13 00:37:45;;;;;;;;;;;;;;;9.50;47.84;100373.53;4420407;32;19982;-75
2022/04/13 00:40:12;;;;;;;;;;;;;;;9.30;48.06;100381.56;4416085;32;19989;-74
2022/04/13 00:42:39;;;;;;;;;;;;;;;9.18;48.42;100383.78;4417218;32;20043;-77
2022/04/13 00:45:05;;;;;;;;;;;;;;;9.43;47.54;100381.94;4417103;32;19982;-76
2022/04/13 00:47:34;;;;;;;;;;;;;;;9.26;48.08;100379.75;3876463;32;10001391;-76
2022/04/13 00:50:01;;;;;;;;;;;;;;;9.48;47.45;100377.81;4397132;32;20020;-76
2022/04/13 00:52:27;;;;;;;;;;;;;;;9.46;47.10;100382.03;4413036;32;20207;-76
2022/04/13 00:54:54;;;;;;;;;;;;;;;9.36;47.46;100380.88;4406285;32;20024;-76
2022/04/13 00:57:23;;;;;;;;;;;;;;;9.23;48.29;100384.81;4419522;32;19986;-76
2022/04/13 00:59:51;;;;;;;;;;;;;;;8.98;49.01;100387.47;4439630;32;20055;-76
2022/04/13 01:02:18;;;;;;;;;;;;;;;9.10;48.21;100387.84;4429817;32;20759;-75
2022/04/13 01:04:46;;;;;;;;;;;;;;;8.97;48.58;100388.31;4423829;32;19994;-75
2022/04/13 01:07:14;;;;;;;;;;;;;;;9.14;48.11;100381.94;4428423;32;20027;-75
2022/04/13 01:09:41;;;;;;;;;;;;;;;9.18;47.73;100388.94;4428297;32;20674;-76
2022/04/13 01:12:08;;;;;;;;;;;;;;;9.15;47.75;100385.41;4424887;32;20381;-75
2022/04/13 01:14:35;;;;;;;;;;;;;;;8.85;48.58;100386.22;4429187;32;20012;-75
2022/04/13 01:17:03;;;;;;;;;;;;;;;8.99;48.22;100389.22;4420857;32;20423;-74
2022/04/13 01:19:31;;;;;;;;;;;;;;;8.80;48.81;100392.91;4417111;32;19982;-75
2022/04/13 01:21:59;;;;;;;;;;;;;;;8.78;48.75;100390.31;4416924;32;20048;-74
2022/04/13 01:24:26;;;;;;;;;;;;;;;8.76;48.99;100391.06;4425666;32;20043;-75
2022/04/13 01:26:53;;;;;;;;;;;;;;;8.75;48.94;100400.53;4420100;32;19999;-74
2022/04/13 01:29:19;;;;;;;;;;;;;;;8.94;48.27;100390.78;4418705;32;19977;-75
2022/04/13 01:31:46;;;;;;;;;;;;;;;8.62;49.00;100393.22;4416877;32;20051;-74
2022/04/13 01:34:13;;;;;;;;;;;;;;;8.78;48.71;100392.87;4417758;32;20027;-76
2022/04/13 01:36:40;;;;;;;;;;;;;;;8.66;49.04;100400.22;4420953;32;19985;-76
2022/04/13 01:39:08;;;;;;;;;;;;;;;8.60;49.08;100400.03;4431451;32;19988;-75
2022/04/13 01:41:34;;;;;;;;;;;;;;;8.64;48.97;100401.88;4433039;32;19985;-76
2022/04/13 01:44:01;;;;;;;;;;;;;;;8.68;48.86;100408.00;4429538;32;19998;-74
2022/04/13 01:46:27;;;;;;;;;;;;;;;8.49;49.02;100402.25;4427463;32;20267;-75
2022/04/13 01:48:54;;;;;;;;;;;;;;;8.63;49.02;100410.44;4428276;32;20003;-75
2022/04/13 01:51:21;;;;;;;;;;;;;;;8.81;48.27;100405.88;4416596;32;19982;-75
2022/04/13 01:53:48;;;;;;;;;;;;;;;8.57;49.15;100415.41;4421378;32;20007;-74
2022/04/13 01:56:15;;;;;;;;;;;;;;;8.87;48.32;100409.47;4434582;32;20432;-75
2022/04/13 01:58:42;;;;;;;;;;;;;;;8.67;48.54;100404.56;4416813;32;20028;-75
2022/04/13 02:01:09;;;;;;;;;;;;;;;8.43;49.28;100417.53;4438319;32;19982;-75
2022/04/13 02:03:36;;;;;;;;;;;;;;;8.57;48.91;100415.41;4417168;32;20360;-74
2022/04/13 02:06:03;;;;;;;;;;;;;;;8.55;49.10;100417.03;4428405;32;19986;-75
2022/04/13 02:08:30;;;;;;;;;;;;;;;8.49;49.46;100411.72;4416887;32;20331;-75
2022/04/13 02:10:57;;;;;;;;;;;;;;;8.47;48.96;100419.38;4418432;32;20660;-74
2022/04/13 02:13:24;;;;;;;;;;;;;;;8.57;48.55;100415.41;4435069;32;20003;-78
2022/04/13 02:15:51;;;;;;;;;;;;;;;8.31;49.48;100417.94;4435369;32;20076;-75
2022/04/13 02:18:18;;;;;;;;;;;;;;;8.44;49.15;100418.41;4416500;32;20016;-74
2022/04/13 02:20:45;;;;;;;;;;;;;;;8.32;49.47;100419.69;4428403;32;19994;-75
2022/04/13 02:23:12;;;;;;;;;;;;;;;8.42;49.02;100414.88;4113752;32;10000717;-74
2022/04/13 02:25:39;;;;;;;;;;;;;;;8.56;48.71;100419.69;4423062;32;20278;-74
2022/04/13 02:28:06;;;;;;;;;;;;;;;8.40;48.73;100426.87;4428431;32;20006;-75
2022/04/13 02:30:33;;;;;;;;;;;;;;;8.33;49.06;100421.47;4434547;32;20029;-76
2022/04/13 02:33:00;;;;;;;;;;;;;;;8.52;48.51;100414.34;4415171;32;20000;-76
2022/04/13 02:35:27;;;;;;;;;;;;;;;8.48;48.72;100420.25;4422709;32;19989;-75
2022/04/13 02:37:54;;;;;;;;;;;;;;;8.07;49.93;100422.22;4429610;32;20032;-75
2022/04/13 02:40:21;;;;;;;;;;;;;;;8.34;48.62;100427.50;4423247;32;19988;-76
2022/04/13 02:42:48;;;;;;;;;;;;;;;8.14;49.43;100419.06;4417999;32;20258;-76
2022/04/13 02:45:15;;;;;;;;;;;;;;;8.08;49.83;100424.88;4423299;32;20027;-76
2022/04/13 02:47:42;;;;;;;;;;;;;;;8.33;49.16;100426.63;4416701;32;20350;-76
2022/04/13 02:50:09;;;;;;;;;;;;;;;8.10;49.90;100427.50;4416051;32;20047;-75
2022/04/13 02:52:35;;;;;;;;;;;;;;;7.95;49.98;100429.56;4425392;32;19985;-75
2022/04/13 02:55:03;;;;;;;;;;;;;;;8.15;49.35;100425.97;4425142;32;20072;-76
2022/04/13 02:57:29;;;;;;;;;;;;;;;7.86;50.35;100428.38;4424323;32;19981;-75
2022/04/13 02:59:56;;;;;;;;;;;;;;;7.93;49.72;100425.22;4419228;32;19978;-76
2022/04/13 03:02:29;;;;;;;;;;;;;;;8.02;49.59;100428.94;4418068;32;19997;-76
2022/04/13 03:04:56;;;;;;;;;;;;;;;8.08;49.25;100424.00;4422972;32;20044;-76
2022/04/13 03:07:25;;;;;;;;;;;;;;;8.15;49.30;100437.16;4416805;32;19989;-75
2022/04/13 03:09:52;;;;;;;;;;;;;;;8.02;49.58;100429.81;4418337;32;19996;-75
2022/04/13 03:12:18;;;;;;;;;;;;;;;7.91;49.60;100433.69;4422597;32;19986;-75
2022/04/13 03:14:46;;;;;;;;;;;;;;;8.08;49.14;100434.31;4416466;32;20053;-75
2022/04/13 03:17:13;;;;;;;;;;;;;;;8.20;49.05;100434.75;4435854;32;20426;-76
2022/04/13 03:19:39;;;;;;;;;;;;;;;8.02;49.52;100439.25;4416133;32;19974;-75
2022/04/13 03:22:06;;;;;;;;;;;;;;;7.99;49.35;100434.88;4416271;32;19974;-76
2022/04/13 03:24:34;;;;;;;;;;;;;;;7.85;49.85;100442.09;4424084;32;20027;-75
2022/04/13 03:27:01;;;;;;;;;;;;;;;7.88;49.85;100439.66;4431469;32;19977;-75
2022/04/13 03:29:28;;;;;;;;;;;;;;;7.92;49.50;100438.06;4426493;32;20399;-75
2022/04/13 03:31:55;;;;;;;;;;;;;;;7.93;49.38;100440.66;4419227;32;20032;-75
2022/04/13 03:34:21;;;;;;;;;;;;;;;7.87;49.65;100443.03;4416225;32;20049;-75
2022/04/13 03:36:49;;;;;;;;;;;;;;;8.06;49.01;100441.13;4401833;32;20057;-74
2022/04/13 03:39:16;;;;;;;;;;;;;;;7.86;49.14;100448.13;4416366;32;20314;-75
2022/04/13 03:41:43;;;;;;;;;;;;;;;7.92;49.38;100449.25;4424439;32;20053;-75
2022/04/13 03:44:10;;;;;;;;;;;;;;;8.02;49.33;100449.56;4409807;32;20382;-75
2022/04/13 03:46:37;;;;;;;;;;;;;;;8.08;48.91;100452.38;4389400;32;20074;-74
2022/04/13 03:49:04;;;;;;;;;;;;;;;7.97;49.30;100458.81;4417837;32;19981;-74
2022/04/13 03:51:31;;;;;;;;;;;;;;;7.89;49.67;100454.28;4422469;32;19994;-75
2022/04/13 03:53:58;;;;;;;;;;;;;;;7.79;49.72;100462.50;4417546;32;19993;-75
2022/04/13 03:56:24;;;;;;;;;;;;;;;7.68;50.00;100464.66;4422273;32;19982;-75
2022/04/13 03:58:51;;;;;;;;;;;;;;;7.61;50.17;100466.97;4427212;32;20352;-75
2022/04/13 04:01:18;;;;;;;;;;;;;;;7.64;50.22;100472.22;4416021;32;19986;-77
2022/04/13 04:03:45;;;;;;;;;;;;;;;7.77;49.70;100461.56;4418929;32;19974;-76
2022/04/13 04:06:12;;;;;;;;;;;;;;;7.68;50.08;100474.09;4424636;32;19978;-76
2022/04/13 04:08:39;;;;;;;;;;;;;;;7.83;49.72;100471.22;4417596;32;20053;-75
2022/04/13 04:11:06;;;;;;;;;;;;;;;7.81;49.74;100467.69;4426088;32;20077;-75
2022/04/13 04:13:32;;;;;;;;;;;;;;;7.68;50.17;100468.94;4428079;32;19981;-74
2022/04/13 04:16:00;;;;;;;;;;;;;;;7.87;49.59;100479.09;4427096;32;19992;-76
2022/04/13 04:18:27;;;;;;;;;;;;;;;7.80;49.89;100474.56;4419652;32;20116;-80
2022/04/13 04:20:54;;;;;;;;;;;;;;;8.02;49.34;100472.78;4430814;32;20028;-81
2022/04/13 04:23:21;;;;;;;;;;;;;;;7.95;49.48;100475.97;4431560;32;19992;-77
2022/04/13 04:25:48;;;;;;;;;;;;;;;7.86;49.89;100474.78;4432150;32;19986;-76
2022/04/13 04:28:15;;;;;;;;;;;;;;;7.81;50.25;100476.31;4421505;32;20313;-77
2022/04/13 04:30:42;;;;;;;;;;;;;;;7.77;50.53;100478.72;4422743;32;19990;-76
2022/04/13 04:33:09;;;;;;;;;;;;;;;7.93;50.32;100479.34;4420660;32;19986;-81
2022/04/13 04:35:36;;;;;;;;;;;;;;;8.09;49.99;100488.50;4428915;32;20874;-80
2022/04/13 04:38:03;;;;;;;;;;;;;;;8.13;49.80;100489.50;4416930;32;20374;-82
2022/04/13 04:40:30;;;;;;;;;;;;;;;8.24;49.88;100493.34;4420348;32;20001;-78
2022/04/13 04:42:58;;;;;;;;;;;;;;;8.35;49.52;100492.03;4442041;32;20015;-76
2022/04/13 04:45:25;;;;;;;;;;;;;;;8.41;49.45;100490.53;4436322;32;19974;-76
2022/04/13 04:47:57;;;;;;;;;;;;;;;8.22;49.90;100489.84;4403190;32;19982;-76
2022/04/13 04:50:24;;;;;;;;;;;;;;;8.42;49.79;100492.28;4424030;32;20020;-74
2022/04/13 04:52:51;;;;;;;;;;;;;;;8.55;49.87;100486.72;4418829;32;19996;-74
2022/04/13 04:55:18;;;;;;;;;;;;;;;8.69;49.53;100498.41;4436676;32;20361;-73
2022/04/13 04:57:45;;;;;;;;;;;;;;;8.84;49.33;100493.75;4421172;32;19982;-73
2022/04/13 05:00:14;;;;;;;;;;;;;;;8.83;49.63;100497.16;4427195;32;20661;-74
2022/04/13 05:02:41;;;;;;;;;;;;;;;9.02;49.46;100497.75;4434355;32;19978;-73
2022/04/13 05:05:09;;;;;;;;;;;;;;;8.80;50.27;100509.94;4428061;32;20028;-80
2022/04/13 05:07:36;;;;;;;;;;;;;;;9.14;49.51;100508.50;4415490;32;19969;-73
2022/04/13 05:10:03;;;;;;;;;;;;;;;9.31;49.15;100504.75;4425111;32;20255;-73
2022/04/13 05:12:30;;;;;;;;;;;;;;;9.39;49.29;100509.28;4430966;32;19990;-80
2022/04/13 05:14:56;;;;;;;;;;;;;;;9.28;49.66;100507.25;4431898;32;20045;-80
2022/04/13 05:17:23;;;;;;;;;;;;;;;9.45;48.73;100509.50;4427093;32;20018;-79
2022/04/13 05:19:50;;;;;;;;;;;;;;;9.47;48.68;100508.69;4420076;32;19977;-81
2022/04/13 05:22:17;;;;;;;;;;;;;;;9.59;48.28;100507.31;4416922;32;20027;-73
2022/04/13 05:24:44;;;;;;;;;;;;;;;9.85;47.99;100508.09;4419873;32;20008;-74
2022/04/13 05:27:11;;;;;;;;;;;;;;;9.99;47.39;100514.56;4422849;32;19984;-81
2022/04/13 05:29:38;;;;;;;;;;;;;;;10.15;47.51;100521.94;4422704;32;19982;-75
2022/04/13 05:32:05;;;;;;;;;;;;;;;10.31;47.19;100512.94;4418470;32;19974;-77
2022/04/13 05:34:32;;;;;;;;;;;;;;;10.53;47.19;100514.41;4416557;32;20041;-73
2022/04/13 05:36:58;;;;;;;;;;;;;;;10.68;46.50;100525.16;4428163;32;19993;-73
2022/04/13 05:39:25;;;;;;;;;;;;;;;10.99;47.05;100520.78;4422624;32;20309;-74
2022/04/13 05:41:52;;;;;;;;;;;;;;;11.23;45.61;100524.78;4431119;32;20313;-73
2022/04/13 05:44:19;;;;;;;;;;;;;;;11.31;45.52;100531.06;4428374;32;20025;-71
2022/04/13 05:46:47;;;;;;;;;;;;;;;11.39;44.75;100537.28;4423535;32;20066;-72
2022/04/13 05:49:14;;;;;;;;;;;;;;;11.43;44.29;100531.34;4417074;32;19978;-71
2022/04/13 05:51:41;;;;;;;;;;;;;;;11.55;44.36;100533.34;4415724;32;20026;-72
2022/04/13 05:54:08;;;;;;;;;;;;;;;11.62;43.74;100530.94;4425303;32;19990;-71
2022/04/13 05:56:34;;;;;;;;;;;;;;;11.72;42.72;100531.16;4426463;32;19995;-72
2022/04/13 05:59:01;;;;;;;;;;;;;;;11.76;42.78;100528.66;4418275;32;19997;-73
2022/04/13 06:01:28;;;;;;;;;;;;;;;11.89;40.85;100532.41;4432544;32;19993;-72
2022/04/13 06:03:55;;;;;;;;;;;;;;;11.96;40.83;100542.09;4432346;32;20005;-72
2022/04/13 06:06:25;;;;;;;;;;;;;;;11.90;40.71;100536.78;4427745;32;20365;-72
2022/04/13 06:08:52;;;;;;;;;;;;;;;11.94;41.06;100528.22;4425647;32;19993;-73
2022/04/13 06:11:24;;;;;;;;;;;;;;;12.00;40.17;100549.13;4415978;32;20004;-73
2022/04/13 06:13:51;;;;;;;;;;;;;;;12.22;40.10;100549.53;4415631;32;20045;-73
2022/04/13 06:16:17;;;;;;;;;;;;;;;12.21;39.79;100547.81;4410594;32;20380;-73
2022/04/13 06:18:45;;;;;;;;;;;;;;;12.45;38.90;100548.31;4394364;32;20028;-73
2022/04/13 06:21:11;;;;;;;;;;;;;;;12.40;39.63;100555.13;4399328;32;20291;-73
2022/04/13 06:23:39;;;;;;;;;;;;;;;12.50;38.57;100551.84;4425445;32;20033;-73
2022/04/13 06:26:06;;;;;;;;;;;;;;;12.50;39.08;100556.19;4406983;32;19974;-72
2022/04/13 06:28:33;;;;;;;;;;;;;;;12.76;37.74;100559.25;4401133;32;20009;-74
2022/04/13 06:30:59;;;;;;;;;;;;;;;12.61;38.74;100564.19;4408615;32;20023;-73
2022/04/13 06:33:30;;;;;;;;;;;;;;;13.15;38.30;100558.25;4417844;32;19985;-73
2022/04/13 06:35:58;;;;;;;;;;;;;;;13.40;37.07;100554.34;4404303;32;20036;-80
2022/04/13 06:38:25;;;;;;;;;;;;;;;13.93;37.02;100562.97;4431346;32;20023;-73
2022/04/13 06:40:52;;;;;;;;;;;;;;;14.15;34.85;100563.25;4410549;32;19977;-78
2022/04/13 06:43:19;;;;;;;;;;;;;;;14.59;33.44;100560.38;4386587;32;20841;-77
2022/04/13 06:45:46;;;;;;;;;;;;;;;14.77;33.32;100565.78;4400747;32;19970;-76
2022/04/13 06:48:13;;;;;;;;;;;;;;;15.13;31.96;100569.59;4401019;32;19975;-81
2022/04/13 06:50:40;;;;;;;;;;;;;;;15.61;30.94;100563.03;4400555;32;20017;-74
2022/04/13 06:53:07;;;;;;;;;;;;;;;15.75;30.62;100561.41;4400506;32;20000;-84
2022/04/13 06:55:37;;;;;;;;;;;;;;;15.95;30.16;100568.50;4400547;32;19970;-78
2022/04/13 06:58:04;;;;;;;;;;;;;;;16.33;29.42;100559.97;4402999;32;20387;-78
2022/04/13 07:00:31;;;;;;;;;;;;;;;16.57;29.75;100567.94;4401818;32;19989;-82
2022/04/13 07:02:59;;;;;;;;;;;;;;;16.67;29.94;100564.47;4387488;32;20054;-74
2022/04/13 07:05:41;;;;;;;;;;;;;;;17.03;29.58;100565.44;4406534;32;19970;-75
2022/04/13 07:08:08;;;;;;;;;;;;;;;17.15;28.49;100560.22;4403008;32;20053;-81
2022/04/13 07:10:35;;;;;;;;;;;;;;;17.48;28.20;100558.47;4401341;32;20841;-78
2022/04/13 07:13:09;;;;;;;;;;;;;;;17.69;28.35;100556.72;4418235;32;19998;-79
2022/04/13 07:15:36;;;;;;;;;;;;;;;17.91;27.45;100558.47;4400145;32;19990;-79
2022/04/13 07:18:03;;;;;;;;;;;;;;;17.93;26.43;100561.06;4385984;32;20497;-78
2022/04/13 07:20:30;;;;;;;;;;;;;;;17.78;27.74;100564.59;4054533;32;10001319;-74
2022/04/13 07:22:57;;;;;;;;;;;;;;;18.34;27.17;100572.28;4387809;32;20000;-74
2022/04/13 07:25:25;;;;;;;;;;;;;;;18.58;25.57;100568.69;4393648;32;20055;-79
2022/04/13 07:27:52;;;;;;;;;;;;;;;18.56;25.95;100565.19;4415065;32;20319;-76
2022/04/13 07:30:19;;;;;;;;;;;;;;;18.57;26.61;100566.97;4406427;32;20088;-77
2022/04/13 07:32:47;;;;;;;;;;;;;;;18.53;26.42;100566.97;4409723;32;20047;-80
2022/04/13 07:35:14;;;;;;;;;;;;;;;18.59;25.03;100565.16;4437580;32;19981;-82
2022/04/13 07:37:43;;;;;;;;;;;;;;;19.05;25.18;100567.56;4432326;32;19978;-81
2022/04/13 07:40:11;;;;;;;;;;;;;;;19.25;25.82;100566.56;4417908;32;20337;-81
2022/04/13 07:42:38;;;;;;;;;;;;;;;19.60;23.60;100570.62;4425796;32;19992;-73
2022/04/13 07:45:05;;;;;;;;;;;;;;;19.66;24.31;100575.87;4418716;32;19990;-74
2022/04/13 07:47:32;;;;;;;;;;;;;;;19.88;23.64;100569.50;4434792;32;19973;-75
2022/04/13 07:50:03;;;;;;;;;;;;;;;19.86;24.40;100571.28;4415469;32;19986;-73
2022/04/13 07:52:33;;;;;;;;;;;;;;;19.69;24.51;100570.59;4421521;32;19977;-82
2022/04/13 07:55:01;;;;;;;;;;;;;;;20.43;24.09;100568.87;4423004;32;19994;-74
2022/04/13 07:57:28;;;;;;;;;;;;;;;20.78;22.63;100579.84;4434870;32;19989;-76
2022/04/13 07:59:55;;;;;;;;;;;;;;;20.09;23.57;100570.16;4418476;32;19986;-76
2022/04/13 08:02:22;;;;;;;;;;;;;;;20.20;22.40;100584.06;4440664;32;20027;-79
2022/04/13 08:04:50;;;;;;;;;;;;;;;19.92;23.53;100576.47;4425113;32;20046;-81
2022/04/13 08:07:17;;;;;;;;;;;;;;;20.11;23.97;100578.91;4432732;32;19989;-74
2022/04/13 08:09:43;;;;;;;;;;;;;;;20.39;23.38;100582.94;4428759;32;20004;-80
2022/04/13 08:12:10;;;;;;;;;;;;;;;20.34;22.27;100573.38;4430729;32;20005;-85
2022/04/13 08:14:37;;;;;;;;;;;;;;;20.33;21.98;100587.41;4425197;32;20741;-76
2022/04/13 08:17:05;;;;;;;;;;;;;;;20.36;21.81;100577.72;4416901;32;19970;-75
2022/04/13 08:19:32;;;;;;;;;;;;;;;20.31;21.63;100578.66;4415521;32;19975;-82
2022/04/13 08:21:59;;;;;;;;;;;;;;;19.75;22.55;100578.41;4418563;32;20039;-75
2022/04/13 08:24:26;;;;;;;;;;;;;;;20.17;23.58;100581.47;4420206;32;20018;-82
2022/04/13 08:26:53;;;;;;;;;;;;;;;20.34;22.16;100579.50;4415440;32;19969;-87
2022/04/13 08:29:20;;;;;;;;;;;;;;;19.57;22.73;100587.28;4410098;32;19997;-76
2022/04/13 08:31:47;;;;;;;;;;;;;;;19.64;21.75;100582.87;4386765;32;20034;-74
2022/04/13 08:34:14;;;;;;;;;;;;;;;19.64;21.98;100575.00;4406998;32;20032;-79
2022/04/13 08:36:42;;;;;;;;;;;;;;;19.80;22.17;100579.22;4417495;32;19969;-76
2022/04/13 08:39:13;;;;;;;;;;;;;;;19.35;23.26;100583.09;4416860;32;20027;-80
2022/04/13 08:41:51;;;;;;;;;;;;;;;19.85;21.80;100580.06;4414170;32;20027;-85
2022/04/13 08:44:18;;;;;;;;;;;;;;;19.70;21.55;100580.19;4421023;32;19982;-75
2022/04/13 08:46:47;;;;;;;;;;;;;;;18.91;22.68;100582.50;4427977;32;19970;-75
2022/04/13 08:49:14;;;;;;;;;;;;;;;19.19;22.37;100593.72;4413788;32;19991;-77
2022/04/13 08:51:59;;;;;;;;;;;;;;;19.24;23.10;100581.44;4410244;32;19982;-79
2022/04/13 08:54:29;;;;;;;;;;;;;;;19.32;21.68;100584.00;4419165;32;20000;-78
2022/04/13 08:56:56;;;;;;;;;;;;;;;19.56;21.05;100582.03;4417728;32;20327;-74
2022/04/13 08:59:51;;;;;;;;;;;;;;;18.81;22.26;100586.09;4423931;32;20006;-75
2022/04/13 09:02:25;;;;;;;;;;;;;;;18.73;26.05;100582.63;4404575;32;19996;-74
2022/04/13 09:04:53;;;;;;;;;;;;;;;19.12;23.60;100585.91;4410625;32;19981;-79
2022/04/13 09:07:20;;;;;;;;;;;;;;;19.49;22.53;100581.22;4409029;32;19988;-74
2022/04/13 09:09:47;;;;;;;;;;;;;;;19.64;25.16;100572.37;4423295;32;19997;-85
2022/04/13 09:12:14;;;;;;;;;;;;;;;19.70;22.06;100580.19;4418752;32;19990;-75
2022/04/13 09:14:41;;;;;;;;;;;;;;;19.79;22.53;100574.84;4419173;32;20002;-75
2022/04/13 09:17:08;;;;;;;;;;;;;;;19.90;22.76;100583.47;4417219;32;19969;-74
2022/04/13 09:19:35;;;;;;;;;;;;;;;19.87;21.49;100573.00;4426492;32;19974;-77
2022/04/13 09:22:02;;;;;;;;;;;;;;;19.54;22.08;100581.19;4427904;32;20033;-77
2022/04/13 09:24:29;;;;;;;;;;;;;;;19.62;21.69;100577.62;4437055;32;20046;-73
2022/04/13 09:26:56;;;;;;;;;;;;;;;19.97;21.93;100569.41;4427919;32;19970;-73
2022/04/13 09:29:22;;;;;;;;;;;;;;;19.59;21.99;100571.50;4416817;32;20430;-80
2022/04/13 09:31:49;;;;;;;;;;;;;;;19.85;22.21;100574.81;4431792;32;20031;-73
2022/04/13 09:34:16;;;;;;;;;;;;;;;19.19;22.67;100571.84;4426316;32;20004;-73
2022/04/13 09:36:44;;;;;;;;;;;;;;;19.57;22.81;100574.16;4417193;32;19978;-75
2022/04/13 09:39:10;;;;;;;;;;;;;;;19.71;22.26;100568.78;4430208;32;20036;-82
2022/04/13 09:41:38;;;;;;;;;;;;;;;19.50;22.77;100568.09;4422676;32;19995;-81
2022/04/13 09:44:14;;;;;;;;;;;;;;;19.86;23.18;100558.13;4424760;32;20024;-84
2022/04/13 09:46:42;;;;;;;;;;;;;;;19.77;24.35;100554.72;4436870;32;20014;-83
2022/04/13 09:49:10;;;;;;;;;;;;;;;20.30;23.18;100564.66;4420060;32;20001;-83
2022/04/13 09:51:41;;;;;;;;;;;;;;;19.97;22.56;100552.75;4434111;32;20008;-78
2022/04/13 09:54:08;;;;;;;;;;;;;;;20.74;21.38;100557.97;4419299;32;20048;-81
2022/04/13 09:56:36;;;;;;;;;;;;;;;20.60;24.07;100566.03;4420255;32;19985;-79
2022/04/13 09:59:06;;;;;;;;;;;;;;;20.60;22.10;100554.66;4409284;32;19989;-76
2022/04/13 10:01:34;;;;;;;;;;;;;;;20.57;24.36;100560.81;4425311;32;19981;-87
2022/04/13 10:04:03;;;;;;;;;;;;;;;20.37;23.46;100547.91;4393029;32;19986;-85
2022/04/13 10:06:33;;;;;;;;;;;;;;;20.40;22.89;100552.25;4428187;32;19992;-75
2022/04/13 10:09:00;;;;;;;;;;;;;;;20.53;24.89;100547.75;4402112;32;20027;-83
2022/04/13 10:11:28;;;;;;;;;;;;;;;20.29;23.74;100544.50;4408065;32;20310;-86
2022/04/13 10:13:54;;;;;;;;;;;;;;;20.53;22.78;100542.47;4401134;32;20318;-89
2022/04/13 10:16:22;;;;;;;;;;;;;;;21.08;22.63;100549.56;4401332;32;19978;-76
2022/04/13 10:18:59;;;;;;;;;;;;;;;21.00;22.06;100548.84;4409239;32;20028;-74
2022/04/13 10:21:49;;;;;;;;;;;;;;;20.63;22.58;100544.09;4401455;32;20304;-76
2022/04/13 10:24:26;;;;;;;;;;;;;;;20.60;22.34;100544.12;4402399;32;19974;-74
2022/04/13 10:27:02;;;;;;;;;;;;;;;20.58;21.82;100538.00;4401072;32;20377;-74
2022/04/13 10:29:30;;;;;;;;;;;;;;;20.51;21.31;100545.13;4403634;32;20071;-74
2022/04/13 10:32:23;;;;;;;;;;;;;;;20.24;22.11;100541.06;4414211;32;20331;-74
2022/04/13 10:34:52;;;;;;;;;;;;;;;20.41;20.99;100539.06;4407460;32;20009;-74
2022/04/13 10:37:20;;;;;;;;;;;;;;;20.97;21.11;100527.81;4407321;32;19974;-80
2022/04/13 10:39:47;;;;;;;;;;;;;;;21.12;21.10;100524.91;4407668;32;20022;-78
2022/04/13 10:42:14;;;;;;;;;;;;;;;20.77;22.13;100526.38;4414735;32;20044;-74
2022/04/13 10:44:42;;;;;;;;;;;;;;;20.69;22.37;100522.97;4417819;32;20372;-73
2022/04/13 10:47:09;;;;;;;;;;;;;;;20.66;22.09;100523.00;4412779;32;19996;-77
2022/04/13 10:49:56;;;;;;;;;;;;;;;21.11;20.81;100525.81;4419438;32;20001;-75
2022/04/13 10:52:28;;;;;;;;;;;;;;;21.09;21.43;100511.81;4401041;32;19982;-75
2022/04/13 10:54:57;;;;;;;;;;;;;;;21.50;20.43;100508.50;4407075;32;20766;-81
2022/04/13 10:57:25;;;;;;;;;;;;;;;21.64;21.23;100505.63;4400680;32;19984;-79
2022/04/13 10:59:52;;;;;;;;;;;;;;;21.66;22.29;100503.81;4411382;32;19975;-80
2022/04/13 11:02:30;;;;;;;;;;;;;;;20.78;20.88;100507.03;4428946;32;19986;-75
2022/04/13 11:04:56;;;;;;;;;;;;;;;20.85;22.17;100503.41;4410233;32;20108;-75
2022/04/13 11:07:24;;;;;;;;;;;;;;;21.01;21.13;100504.03;4416154;32;19970;-78
2022/04/13 11:09:51;;;;;;;;;;;;;;;20.60;21.41;100500.28;4426950;32;20005;-74
2022/04/13 11:12:18;;;;;;;;;;;;;;;20.89;21.49;100489.31;4421995;32;19990;-75
2022/04/13 11:14:52;;;;;;;;;;;;;;;21.13;21.33;100489.81;4334992;32;21564;-76
2022/04/13 11:17:19;;;;;;;;;;;;;;;20.95;21.41;100482.22;4398130;32;20016;-75
2022/04/13 11:19:47;;;;;;;;;;;;;;;20.17;22.72;100492.09;4415436;32;19978;-77
2022/04/13 11:22:18;;;;;;;;;;;;;;;20.49;21.78;100488.16;4421732;32;20399;-74
2022/04/13 11:24:45;;;;;;;;;;;;;;;20.61;22.03;100488.88;4416844;32;20290;-82
2022/04/13 11:27:12;;;;;;;;;;;;;;;21.03;20.79;100482.97;4404866;32;20012;-79
2022/04/13 11:29:42;;;;;;;;;;;;;;;20.93;20.38;100478.72;4404821;32;20000;-85
2022/04/13 11:32:10;;;;;;;;;;;;;;;20.71;22.02;100475.56;4394140;32;20035;-78
2022/04/13 11:34:50;;;;;;;;;;;;;;;20.76;21.36;100477.25;4415585;32;19990;-79
2022/04/13 11:37:21;;;;;;;;;;;;;;;20.70;23.04;100466.81;4424068;32;19966;-74
2022/04/13 11:39:51;;;;;;;;;;;;;;;20.80;21.34;100470.16;4420367;32;19974;-76
2022/04/13 11:42:28;;;;;;;;;;;;;;;21.21;23.33;100474.75;4391688;32;19994;-74
2022/04/13 11:45:07;;;;;;;;;;;;;;;21.27;22.96;100457.97;4414711;32;19990;-74
2022/04/13 11:47:41;;;;;;;;;;;;;;;20.90;22.75;100458.63;4408131;32;19981;-75
2022/04/13 11:50:12;;;;;;;;;;;;;;;21.22;22.62;100463.34;4410175;32;20465;-81
2022/04/13 11:52:43;;;;;;;;;;;;;;;20.98;21.52;100464.59;4421678;32;20293;-80
2022/04/13 11:55:15;;;;;;;;;;;;;;;21.50;21.67;100460.22;4393254;32;19986;-76
2022/04/13 11:58:02;;;;;;;;;;;;;;;21.39;22.79;100456.94;4413000;32;19999;-83
2022/04/13 12:00:45;;;;;;;;;;;;;;;21.44;24.86;100449.78;4404368;32;20013;-79
2022/04/13 12:03:14;;;;;;;;;;;;;;;21.11;24.46;100450.34;4423733;32;20445;-75
2022/04/13 12:05:42;;;;;;;;;;;;;;;21.21;22.82;100443.16;4411645;32;19998;-79
2022/04/13 12:08:15;;;;;;;;;;;;;;;21.42;23.92;100443.69;4391327;32;19970;-80
2022/04/13 12:10:46;;;;;;;;;;;;;;;21.96;22.28;100432.97;4425916;32;19991;-78
2022/04/13 12:13:13;;;;;;;;;;;;;;;22.17;22.38;100427.22;4415126;32;20027;-77
2022/04/13 12:15:43;;;;;;;;;;;;;;;21.90;20.57;100433.09;4406164;32;20004;-78
2022/04/13 12:18:10;;;;;;;;;;;;;;;22.34;21.48;100424.22;4405512;32;20302;-80
2022/04/13 12:20:37;;;;;;;;;;;;;;;22.65;20.46;100418.22;4403056;32;19989;-80
2022/04/13 12:23:17;;;;;;;;;;;;;;;22.64;21.84;100412.06;4419784;32;19986;-81
2022/04/13 12:25:45;;;;;;;;;;;;;;;21.61;25.09;100417.88;4428031;32;19981;-81
2022/04/13 12:28:12;;;;;;;;;;;;;;;21.30;23.30;100419.28;4423425;32;20100;-76
2022/04/13 12:30:39;;;;;;;;;;;;;;;20.95;24.39;100416.41;4426440;32;20029;-79
2022/04/13 12:33:21;;;;;;;;;;;;;;;20.97;22.51;100417.28;4416860;32;20060;-78
2022/04/13 12:35:52;;;;;;;;;;;;;;;21.12;23.35;100414.34;4410333;32;20452;-80
2022/04/13 12:38:22;;;;;;;;;;;;;;;21.44;21.81;100407.63;4416633;32;19990;-78
2022/04/13 12:40:49;;;;;;;;;;;;;;;21.91;21.91;100409.31;4405866;32;20034;-82
2022/04/13 12:43:28;;;;;;;;;;;;;;;21.23;22.05;100408.91;4414927;32;20267;-76
2022/04/13 12:45:55;;;;;;;;;;;;;;;21.29;24.25;100398.25;4376830;32;20032;-78